sensor_id;sensor_type;location;lat;lon;timestamp;P1;durP1;ratioP1;P2;durP2;ratioP2
40022;SDS011;25713;-35.352;149.036;2023-01-15T00:01:39;0.95;;;0.60;;
40022;SDS011;25713;-35.352;149.036;2023-01-15T00:04:10;1.35;;;0.47;;
40022;SDS011;25713;-35.352;149.036;2023-01-15T00:06:40;2.03;;;0.70;;
40022;SDS011;25713;-35.352;149.036;2023-01-15T00:09:12;0.75;;;0.60;;
40022;SDS011;25713;-35.352;149.036;2023-01-15T00:11:44;0.75;;;0.75;;
40022;SDS011;25713;-35.352;149.036;2023-01-15T00:14:14;0.73;;;0.73;;
40022;SDS011;25713;-35.352;149.036;2023-01-15T00:16:43;1.25;;;0.70;;
40022;SDS011;25713;-35.352;149.036;2023-01-15T00:19:13;1.25;;;0.80;;
40022;SDS011;25713;-35.352;149.036;2023-01-15T00:21:42;0.60;;;0.60;;
40022;SDS011;25713;-35.352;149.036;2023-01-15T00:24:12;1.67;;;0.75;;
40022;SDS011;25713;-35.352;149.036;2023-01-15T00:26:41;1.17;;;0.70;;
40022;SDS011;25713;-35.352;149.036;2023-01-15T00:29:14;0.80;;;0.80;;
40022;SDS011;25713;-35.352;149.036;2023-01-15T00:31:51;0.80;;;0.80;;
40022;SDS011;25713;-35.352;149.036;2023-01-15T00:34:23;2.75;;;0.85;;
40022;SDS011;25713;-35.352;149.036;2023-01-15T00:36:52;1.20;;;0.70;;
40022;SDS011;25713;-35.352;149.036;2023-01-15T00:39:22;2.17;;;0.93;;
40022;SDS011;25713;-35.352;149.036;2023-01-15T00:41:54;4.57;;;1.17;;
40022;SDS011;25713;-35.352;149.036;2023-01-15T00:44:24;2.65;;;1.10;;
40022;SDS011;25713;-35.352;149.036;2023-01-15T00:46:53;1.55;;;1.20;;
40022;SDS011;25713;-35.352;149.036;2023-01-15T00:49:23;7.43;;;1.42;;
40022;SDS011;25713;-35.352;149.036;2023-01-15T00:51:52;2.13;;;1.40;;
40022;SDS011;25713;-35.352;149.036;2023-01-15T00:54:22;4.68;;;1.33;;
40022;SDS011;25713;-35.352;149.036;2023-01-15T00:56:55;2.92;;;1.52;;
40022;SDS011;25713;-35.352;149.036;2023-01-15T00:59:24;2.97;;;1.40;;
40022;SDS011;25713;-35.352;149.036;2023-01-15T01:01:54;3.22;;;1.42;;
40022;SDS011;25713;-35.352;149.036;2023-01-15T01:04:24;1.83;;;1.60;;
40022;SDS011;25713;-35.352;149.036;2023-01-15T01:06:53;3.83;;;1.42;;
40022;SDS011;25713;-35.352;149.036;2023-01-15T01:09:23;1.63;;;1.40;;
40022;SDS011;25713;-35.352;149.036;2023-01-15T01:11:52;1.45;;;1.30;;
40022;SDS011;25713;-35.352;149.036;2023-01-15T01:14:23;3.33;;;1.70;;
40022;SDS011;25713;-35.352;149.036;2023-01-15T01:16:53;2.22;;;1.88;;
40022;SDS011;25713;-35.352;149.036;2023-01-15T01:19:23;2.20;;;1.77;;
40022;SDS011;25713;-35.352;149.036;2023-01-15T01:21:53;2.92;;;1.73;;
40022;SDS011;25713;-35.352;149.036;2023-01-15T01:24:22;2.15;;;1.60;;
40022;SDS011;25713;-35.352;149.036;2023-01-15T01:26:52;2.53;;;1.70;;
40022;SDS011;25713;-35.352;149.036;2023-01-15T01:29:23;2.70;;;1.70;;
40022;SDS011;25713;-35.352;149.036;2023-01-15T01:31:53;2.10;;;1.70;;
40022;SDS011;25713;-35.352;149.036;2023-01-15T01:34:22;2.22;;;1.75;;
40022;SDS011;25713;-35.352;149.036;2023-01-15T01:36:52;3.45;;;1.70;;
40022;SDS011;25713;-35.352;149.036;2023-01-15T01:39:21;2.58;;;1.70;;
40022;SDS011;25713;-35.352;149.036;2023-01-15T01:41:50;1.90;;;1.70;;
40022;SDS011;25713;-35.352;149.036;2023-01-15T01:47:29;2.85;;;2.00;;
40022;SDS011;25713;-35.352;149.036;2023-01-15T01:50:01;2.88;;;1.77;;
40022;SDS011;25713;-35.352;149.036;2023-01-15T01:52:35;4.70;;;1.83;;
40022;SDS011;25713;-35.352;149.036;2023-01-15T01:55:08;4.78;;;2.42;;
40022;SDS011;25713;-35.352;149.036;2023-01-15T01:57:40;3.03;;;2.15;;
40022;SDS011;25713;-35.352;149.036;2023-01-15T02:00:13;3.08;;;2.00;;
40022;SDS011;25713;-35.352;149.036;2023-01-15T02:02:43;2.72;;;1.85;;
40022;SDS011;25713;-35.352;149.036;2023-01-15T02:05:17;2.10;;;1.90;;
40022;SDS011;25713;-35.352;149.036;2023-01-15T02:07:54;3.90;;;1.98;;
40022;SDS011;25713;-35.352;149.036;2023-01-15T02:10:24;1.80;;;1.70;;
40022;SDS011;25713;-35.352;149.036;2023-01-15T02:12:55;2.72;;;1.90;;
40022;SDS011;25713;-35.352;149.036;2023-01-15T02:15:34;3.40;;;1.98;;
40022;SDS011;25713;-35.352;149.036;2023-01-15T02:18:08;3.33;;;2.20;;
40022;SDS011;25713;-35.352;149.036;2023-01-15T02:20:45;2.67;;;1.80;;
40022;SDS011;25713;-35.352;149.036;2023-01-15T02:23:27;2.20;;;2.00;;
40022;SDS011;25713;-35.352;149.036;2023-01-15T02:29:14;2.13;;;1.92;;
40022;SDS011;25713;-35.352;149.036;2023-01-15T02:31:49;3.65;;;2.33;;
40022;SDS011;25713;-35.352;149.036;2023-01-15T02:34:19;3.13;;;2.20;;
40022;SDS011;25713;-35.352;149.036;2023-01-15T02:36:55;3.80;;;2.17;;
40022;SDS011;25713;-35.352;149.036;2023-01-15T02:39:28;5.45;;;2.10;;
40022;SDS011;25713;-35.352;149.036;2023-01-15T02:42:02;3.23;;;2.23;;
40022;SDS011;25713;-35.352;149.036;2023-01-15T02:44:43;2.97;;;2.13;;
40022;SDS011;25713;-35.352;149.036;2023-01-15T02:47:16;2.80;;;2.40;;
40022;SDS011;25713;-35.352;149.036;2023-01-15T02:49:49;6.35;;;2.40;;
40022;SDS011;25713;-35.352;149.036;2023-01-15T02:52:23;4.93;;;2.25;;
40022;SDS011;25713;-35.352;149.036;2023-01-15T02:54:56;3.67;;;2.22;;
40022;SDS011;25713;-35.352;149.036;2023-01-15T02:57:33;2.42;;;2.20;;
40022;SDS011;25713;-35.352;149.036;2023-01-15T03:00:08;2.72;;;2.28;;
40022;SDS011;25713;-35.352;149.036;2023-01-15T03:02:41;2.40;;;2.20;;
40022;SDS011;25713;-35.352;149.036;2023-01-15T03:05:16;3.20;;;2.38;;
40022;SDS011;25713;-35.352;149.036;2023-01-15T03:07:49;2.38;;;2.17;;
40022;SDS011;25713;-35.352;149.036;2023-01-15T03:10:25;6.10;;;2.53;;
40022;SDS011;25713;-35.352;149.036;2023-01-15T03:13:01;3.10;;;2.35;;
40022;SDS011;25713;-35.352;149.036;2023-01-15T03:15:52;8.75;;;2.08;;
40022;SDS011;25713;-35.352;149.036;2023-01-15T03:18:26;2.53;;;2.17;;
40022;SDS011;25713;-35.352;149.036;2023-01-15T03:20:59;3.08;;;2.28;;
40022;SDS011;25713;-35.352;149.036;2023-01-15T03:23:33;2.97;;;2.17;;
40022;SDS011;25713;-35.352;149.036;2023-01-15T03:26:05;3.63;;;2.50;;
40022;SDS011;25713;-35.352;149.036;2023-01-15T03:28:43;6.45;;;2.35;;
40022;SDS011;25713;-35.352;149.036;2023-01-15T03:31:15;2.50;;;2.30;;
40022;SDS011;25713;-35.352;149.036;2023-01-15T03:33:44;2.70;;;2.40;;
40022;SDS011;25713;-35.352;149.036;2023-01-15T03:36:18;4.43;;;2.50;;
40022;SDS011;25713;-35.352;149.036;2023-01-15T03:38:49;4.28;;;2.22;;
40022;SDS011;25713;-35.352;149.036;2023-01-15T03:41:40;6.85;;;2.75;;
40022;SDS011;25713;-35.352;149.036;2023-01-15T03:44:20;2.85;;;2.40;;
40022;SDS011;25713;-35.352;149.036;2023-01-15T03:46:55;3.63;;;2.53;;
40022;SDS011;25713;-35.352;149.036;2023-01-15T03:49:34;2.83;;;2.63;;
40022;SDS011;25713;-35.352;149.036;2023-01-15T03:52:19;3.60;;;2.70;;
40022;SDS011;25713;-35.352;149.036;2023-01-15T03:54:56;2.80;;;2.60;;
40022;SDS011;25713;-35.352;149.036;2023-01-15T03:57:37;5.65;;;2.67;;
40022;SDS011;25713;-35.352;149.036;2023-01-15T04:00:13;4.43;;;2.70;;
40022;SDS011;25713;-35.352;149.036;2023-01-15T04:02:50;3.28;;;2.60;;
40022;SDS011;25713;-35.352;149.036;2023-01-15T04:05:22;2.63;;;2.40;;
40022;SDS011;25713;-35.352;149.036;2023-01-15T04:07:53;3.70;;;2.70;;
40022;SDS011;25713;-35.352;149.036;2023-01-15T04:10:25;4.55;;;2.97;;
40022;SDS011;25713;-35.352;149.036;2023-01-15T04:12:56;3.20;;;2.65;;
40022;SDS011;25713;-35.352;149.036;2023-01-15T04:15:28;3.67;;;3.38;;
40022;SDS011;25713;-35.352;149.036;2023-01-15T04:17:57;4.18;;;3.22;;
40022;SDS011;25713;-35.352;149.036;2023-01-15T04:20:29;5.32;;;3.15;;
40022;SDS011;25713;-35.352;149.036;2023-01-15T04:22:59;5.05;;;3.45;;
40022;SDS011;25713;-35.352;149.036;2023-01-15T04:25:28;3.95;;;3.55;;
40022;SDS011;25713;-35.352;149.036;2023-01-15T04:27:58;4.07;;;3.38;;
40022;SDS011;25713;-35.352;149.036;2023-01-15T04:30:29;4.07;;;3.38;;
40022;SDS011;25713;-35.352;149.036;2023-01-15T04:32:59;3.83;;;3.53;;
40022;SDS011;25713;-35.352;149.036;2023-01-15T04:35:29;3.67;;;3.38;;
40022;SDS011;25713;-35.352;149.036;2023-01-15T04:37:58;4.43;;;3.83;;
40022;SDS011;25713;-35.352;149.036;2023-01-15T04:40:28;5.32;;;4.30;;
40022;SDS011;25713;-35.352;149.036;2023-01-15T04:42:57;4.32;;;3.92;;
40022;SDS011;25713;-35.352;149.036;2023-01-15T04:45:27;5.55;;;4.22;;
40022;SDS011;25713;-35.352;149.036;2023-01-15T04:47:58;4.20;;;3.85;;
40022;SDS011;25713;-35.352;149.036;2023-01-15T04:50:28;4.25;;;3.88;;
40022;SDS011;25713;-35.352;149.036;2023-01-15T04:52:58;4.00;;;3.70;;
40022;SDS011;25713;-35.352;149.036;2023-01-15T04:55:27;4.30;;;3.80;;
40022;SDS011;25713;-35.352;149.036;2023-01-15T04:57:57;4.60;;;4.20;;
40022;SDS011;25713;-35.352;149.036;2023-01-15T05:00:27;7.35;;;4.85;;
40022;SDS011;25713;-35.352;149.036;2023-01-15T05:02:58;4.82;;;4.47;;
40022;SDS011;25713;-35.352;149.036;2023-01-15T05:05:28;4.70;;;4.30;;
40022;SDS011;25713;-35.352;149.036;2023-01-15T05:07:57;6.30;;;4.28;;
40022;SDS011;25713;-35.352;149.036;2023-01-15T05:10:27;4.97;;;4.50;;
40022;SDS011;25713;-35.352;149.036;2023-01-15T05:12:56;4.65;;;4.20;;
40022;SDS011;25713;-35.352;149.036;2023-01-15T05:15:26;6.85;;;4.22;;
40022;SDS011;25713;-35.352;149.036;2023-01-15T05:17:57;5.80;;;4.93;;
40022;SDS011;25713;-35.352;149.036;2023-01-15T05:20:26;5.00;;;4.47;;
40022;SDS011;25713;-35.352;149.036;2023-01-15T05:22:56;5.85;;;5.25;;
40022;SDS011;25713;-35.352;149.036;2023-01-15T05:25:25;5.50;;;5.00;;
40022;SDS011;25713;-35.352;149.036;2023-01-15T05:27:55;5.10;;;3.58;;
40022;SDS011;25713;-35.352;149.036;2023-01-15T05:30:24;3.47;;;2.45;;
40022;SDS011;25713;-35.352;149.036;2023-01-15T05:32:53;6.00;;;3.40;;
40022;SDS011;25713;-35.352;149.036;2023-01-15T05:35:25;3.75;;;3.15;;
40022;SDS011;25713;-35.352;149.036;2023-01-15T05:37:54;7.38;;;2.95;;
40022;SDS011;25713;-35.352;149.036;2023-01-15T05:40:24;5.35;;;2.50;;
40022;SDS011;25713;-35.352;149.036;2023-01-15T05:42:53;4.53;;;2.95;;
40022;SDS011;25713;-35.352;149.036;2023-01-15T05:45:22;4.10;;;2.58;;
40022;SDS011;25713;-35.352;149.036;2023-01-15T05:47:52;8.18;;;2.30;;
40022;SDS011;25713;-35.352;149.036;2023-01-15T05:50:23;3.75;;;2.90;;
40022;SDS011;25713;-35.352;149.036;2023-01-15T05:52:52;6.43;;;2.20;;
40022;SDS011;25713;-35.352;149.036;2023-01-15T05:55:22;4.75;;;2.03;;
40022;SDS011;25713;-35.352;149.036;2023-01-15T05:57:51;4.88;;;2.00;;
40022;SDS011;25713;-35.352;149.036;2023-01-15T06:00:21;6.40;;;2.10;;
40022;SDS011;25713;-35.352;149.036;2023-01-15T06:02:51;4.35;;;1.77;;
40022;SDS011;25713;-35.352;149.036;2023-01-15T06:05:20;3.92;;;1.65;;
40022;SDS011;25713;-35.352;149.036;2023-01-15T06:07:52;5.57;;;1.52;;
40022;SDS011;25713;-35.352;149.036;2023-01-15T06:10:21;4.35;;;1.45;;
40022;SDS011;25713;-35.352;149.036;2023-01-15T06:12:51;2.25;;;1.25;;
40022;SDS011;25713;-35.352;149.036;2023-01-15T06:15:20;1.67;;;1.50;;
40022;SDS011;25713;-35.352;149.036;2023-01-15T06:17:49;3.35;;;1.20;;
40022;SDS011;25713;-35.352;149.036;2023-01-15T06:20:19;1.10;;;1.00;;
40022;SDS011;25713;-35.352;149.036;2023-01-15T06:22:51;2.60;;;1.20;;
40022;SDS011;25713;-35.352;149.036;2023-01-15T06:25:21;1.15;;;1.00;;
40022;SDS011;25713;-35.352;149.036;2023-01-15T06:27:50;2.78;;;1.20;;
40022;SDS011;25713;-35.352;149.036;2023-01-15T06:30:19;2.85;;;1.10;;
40022;SDS011;25713;-35.352;149.036;2023-01-15T06:32:49;2.38;;;1.10;;
40022;SDS011;25713;-35.352;149.036;2023-01-15T06:35:18;1.83;;;1.15;;
40022;SDS011;25713;-35.352;149.036;2023-01-15T06:37:50;2.95;;;1.30;;
40022;SDS011;25713;-35.352;149.036;2023-01-15T06:40:19;2.92;;;1.05;;
40022;SDS011;25713;-35.352;149.036;2023-01-15T06:42:58;3.15;;;1.30;;
40022;SDS011;25713;-35.352;149.036;2023-01-15T06:45:27;2.33;;;1.10;;
40022;SDS011;25713;-35.352;149.036;2023-01-15T06:48:03;4.10;;;1.33;;
40022;SDS011;25713;-35.352;149.036;2023-01-15T06:50:34;2.17;;;1.37;;
40022;SDS011;25713;-35.352;149.036;2023-01-15T06:53:05;3.15;;;1.30;;
40022;SDS011;25713;-35.352;149.036;2023-01-15T06:55:35;2.35;;;1.60;;
40022;SDS011;25713;-35.352;149.036;2023-01-15T06:58:04;2.92;;;1.25;;
40022;SDS011;25713;-35.352;149.036;2023-01-15T07:00:33;2.53;;;1.40;;
40022;SDS011;25713;-35.352;149.036;2023-01-15T07:03:04;3.33;;;1.20;;
40022;SDS011;25713;-35.352;149.036;2023-01-15T07:05:34;3.15;;;1.20;;
40022;SDS011;25713;-35.352;149.036;2023-01-15T07:08:07;2.30;;;1.40;;
40022;SDS011;25713;-35.352;149.036;2023-01-15T07:10:37;2.67;;;1.30;;
40022;SDS011;25713;-35.352;149.036;2023-01-15T07:13:08;4.93;;;1.40;;
40022;SDS011;25713;-35.352;149.036;2023-01-15T07:15:38;4.03;;;1.63;;
40022;SDS011;25713;-35.352;149.036;2023-01-15T07:18:07;5.45;;;1.27;;
40022;SDS011;25713;-35.352;149.036;2023-01-15T07:20:36;3.53;;;1.13;;
40022;SDS011;25713;-35.352;149.036;2023-01-15T07:23:09;3.63;;;1.38;;
40022;SDS011;25713;-35.352;149.036;2023-01-15T07:25:38;3.60;;;1.25;;
40022;SDS011;25713;-35.352;149.036;2023-01-15T07:28:08;3.80;;;1.33;;
40022;SDS011;25713;-35.352;149.036;2023-01-15T07:30:37;2.22;;;1.00;;
40022;SDS011;25713;-35.352;149.036;2023-01-15T07:33:07;4.05;;;1.27;;
40022;SDS011;25713;-35.352;149.036;2023-01-15T07:35:36;3.13;;;1.30;;
40022;SDS011;25713;-35.352;149.036;2023-01-15T07:38:09;3.67;;;1.42;;
40022;SDS011;25713;-35.352;149.036;2023-01-15T07:40:38;7.28;;;1.27;;
40022;SDS011;25713;-35.352;149.036;2023-01-15T07:43:07;2.83;;;1.40;;
40022;SDS011;25713;-35.352;149.036;2023-01-15T07:45:37;2.47;;;1.30;;
40022;SDS011;25713;-35.352;149.036;2023-01-15T07:48:08;5.65;;;1.38;;
40022;SDS011;25713;-35.352;149.036;2023-01-15T07:50:39;2.03;;;1.17;;
40022;SDS011;25713;-35.352;149.036;2023-01-15T07:53:10;2.22;;;1.00;;
40022;SDS011;25713;-35.352;149.036;2023-01-15T07:55:42;2.92;;;1.20;;
40022;SDS011;25713;-35.352;149.036;2023-01-15T07:58:11;3.78;;;1.33;;
40022;SDS011;25713;-35.352;149.036;2023-01-15T08:00:40;1.65;;;1.10;;
40022;SDS011;25713;-35.352;149.036;2023-01-15T08:03:10;3.47;;;1.30;;
40022;SDS011;25713;-35.352;149.036;2023-01-15T08:05:39;3.63;;;1.10;;
40022;SDS011;25713;-35.352;149.036;2023-01-15T08:08:15;2.42;;;1.13;;
40022;SDS011;25713;-35.352;149.036;2023-01-15T08:10:45;2.10;;;1.02;;
40022;SDS011;25713;-35.352;149.036;2023-01-15T08:13:15;2.65;;;1.20;;
40022;SDS011;25713;-35.352;149.036;2023-01-15T08:15:44;3.47;;;1.20;;
40022;SDS011;25713;-35.352;149.036;2023-01-15T08:18:13;3.10;;;0.95;;
40022;SDS011;25713;-35.352;149.036;2023-01-15T08:20:43;1.50;;;1.05;;
40022;SDS011;25713;-35.352;149.036;2023-01-15T08:23:12;2.05;;;0.98;;
40022;SDS011;25713;-35.352;149.036;2023-01-15T08:25:43;1.63;;;1.00;;
40022;SDS011;25713;-35.352;149.036;2023-01-15T08:28:13;1.27;;;0.90;;
40022;SDS011;25713;-35.352;149.036;2023-01-15T08:30:42;3.00;;;1.00;;
40022;SDS011;25713;-35.352;149.036;2023-01-15T08:33:11;1.33;;;0.85;;
40022;SDS011;25713;-35.352;149.036;2023-01-15T08:35:41;1.65;;;1.02;;
40022;SDS011;25713;-35.352;149.036;2023-01-15T08:38:10;1.63;;;0.93;;
40022;SDS011;25713;-35.352;149.036;2023-01-15T08:40:41;2.25;;;1.20;;
40022;SDS011;25713;-35.352;149.036;2023-01-15T08:43:11;1.67;;;0.90;;
40022;SDS011;25713;-35.352;149.036;2023-01-15T08:45:40;1.73;;;1.27;;
40022;SDS011;25713;-35.352;149.036;2023-01-15T08:48:10;2.25;;;1.00;;
40022;SDS011;25713;-35.352;149.036;2023-01-15T08:50:39;2.25;;;1.20;;
40022;SDS011;25713;-35.352;149.036;2023-01-15T08:53:08;1.38;;;1.20;;
40022;SDS011;25713;-35.352;149.036;2023-01-15T08:55:38;4.78;;;1.23;;
40022;SDS011;25713;-35.352;149.036;2023-01-15T08:58:09;3.10;;;1.60;;
40022;SDS011;25713;-35.352;149.036;2023-01-15T09:00:39;2.17;;;1.13;;
40022;SDS011;25713;-35.352;149.036;2023-01-15T09:03:08;4.85;;;1.38;;
40022;SDS011;25713;-35.352;149.036;2023-01-15T09:05:41;2.92;;;1.30;;
40022;SDS011;25713;-35.352;149.036;2023-01-15T09:08:10;2.55;;;1.10;;
40022;SDS011;25713;-35.352;149.036;2023-01-15T09:10:42;2.08;;;1.02;;
40022;SDS011;25713;-35.352;149.036;2023-01-15T09:13:11;1.53;;;0.97;;
40022;SDS011;25713;-35.352;149.036;2023-01-15T09:15:40;2.80;;;1.15;;
40022;SDS011;25713;-35.352;149.036;2023-01-15T09:18:10;1.85;;;1.23;;
40022;SDS011;25713;-35.352;149.036;2023-01-15T09:20:39;1.98;;;1.10;;
40022;SDS011;25713;-35.352;149.036;2023-01-15T09:23:09;1.98;;;1.20;;
40022;SDS011;25713;-35.352;149.036;2023-01-15T09:25:38;2.80;;;1.13;;
40022;SDS011;25713;-35.352;149.036;2023-01-15T09:28:17;2.70;;;1.15;;
40022;SDS011;25713;-35.352;149.036;2023-01-15T09:30:47;1.63;;;1.00;;
40022;SDS011;25713;-35.352;149.036;2023-01-15T09:33:16;2.45;;;1.10;;
40022;SDS011;25713;-35.352;149.036;2023-01-15T09:35:45;2.58;;;1.10;;
40022;SDS011;25713;-35.352;149.036;2023-01-15T09:38:15;2.38;;;1.10;;
40022;SDS011;25713;-35.352;149.036;2023-01-15T09:40:49;1.25;;;1.00;;
40022;SDS011;25713;-35.352;149.036;2023-01-15T09:43:32;2.38;;;1.20;;
40022;SDS011;25713;-35.352;149.036;2023-01-15T09:46:08;1.83;;;1.10;;
40022;SDS011;25713;-35.352;149.036;2023-01-15T09:48:43;2.50;;;1.40;;
40022;SDS011;25713;-35.352;149.036;2023-01-15T09:51:24;1.50;;;1.10;;
40022;SDS011;25713;-35.352;149.036;2023-01-15T09:54:10;2.67;;;1.20;;
40022;SDS011;25713;-35.352;149.036;2023-01-15T09:56:49;1.10;;;1.00;;
40022;SDS011;25713;-35.352;149.036;2023-01-15T09:59:23;1.10;;;0.98;;
40022;SDS011;25713;-35.352;149.036;2023-01-15T10:01:57;1.30;;;1.02;;
40022;SDS011;25713;-35.352;149.036;2023-01-15T10:04:31;2.08;;;1.15;;
40022;SDS011;25713;-35.352;149.036;2023-01-15T10:07:07;1.88;;;1.00;;
40022;SDS011;25713;-35.352;149.036;2023-01-15T10:09:39;3.03;;;1.30;;
40022;SDS011;25713;-35.352;149.036;2023-01-15T10:12:15;2.42;;;1.20;;
40022;SDS011;25713;-35.352;149.036;2023-01-15T10:14:48;1.92;;;1.23;;
40022;SDS011;25713;-35.352;149.036;2023-01-15T10:17:24;2.20;;;1.40;;
40022;SDS011;25713;-35.352;149.036;2023-01-15T10:22:38;2.38;;;1.20;;
40022;SDS011;25713;-35.352;149.036;2023-01-15T10:25:15;1.60;;;1.30;;
40022;SDS011;25713;-35.352;149.036;2023-01-15T10:27:51;2.00;;;1.23;;
40022;SDS011;25713;-35.352;149.036;2023-01-15T10:30:24;1.95;;;1.30;;
40022;SDS011;25713;-35.352;149.036;2023-01-15T10:33:04;1.50;;;1.00;;
40022;SDS011;25713;-35.352;149.036;2023-01-15T10:35:51;2.95;;;1.20;;
40022;SDS011;25713;-35.352;149.036;2023-01-15T10:38:25;2.38;;;1.20;;
40022;SDS011;25713;-35.352;149.036;2023-01-15T10:41:08;3.38;;;1.30;;
40022;SDS011;25713;-35.352;149.036;2023-01-15T10:43:52;1.83;;;1.33;;
40022;SDS011;25713;-35.352;149.036;2023-01-15T10:46:27;2.15;;;1.00;;
40022;SDS011;25713;-35.352;149.036;2023-01-15T10:49:01;2.42;;;1.10;;
40022;SDS011;25713;-35.352;149.036;2023-01-15T10:51:34;1.40;;;1.20;;
40022;SDS011;25713;-35.352;149.036;2023-01-15T10:54:11;1.48;;;1.00;;
40022;SDS011;25713;-35.352;149.036;2023-01-15T10:56:50;2.33;;;1.15;;
40022;SDS011;25713;-35.352;149.036;2023-01-15T10:59:26;2.80;;;1.23;;
40022;SDS011;25713;-35.352;149.036;2023-01-15T11:02:12;1.40;;;1.00;;
40022;SDS011;25713;-35.352;149.036;2023-01-15T11:04:50;1.40;;;1.20;;
40022;SDS011;25713;-35.352;149.036;2023-01-15T11:07:20;1.30;;;1.13;;
40022;SDS011;25713;-35.352;149.036;2023-01-15T11:10:03;1.63;;;1.20;;
40022;SDS011;25713;-35.352;149.036;2023-01-15T11:12:34;2.55;;;1.27;;
40022;SDS011;25713;-35.352;149.036;2023-01-15T11:15:17;2.13;;;1.10;;
40022;SDS011;25713;-35.352;149.036;2023-01-15T11:17:50;1.42;;;1.23;;
40022;SDS011;25713;-35.352;149.036;2023-01-15T11:20:23;1.40;;;1.25;;
40022;SDS011;25713;-35.352;149.036;2023-01-15T11:22:56;1.58;;;1.13;;
40022;SDS011;25713;-35.352;149.036;2023-01-15T11:25:33;1.85;;;1.20;;
40022;SDS011;25713;-35.352;149.036;2023-01-15T11:28:04;1.63;;;1.38;;
40022;SDS011;25713;-35.352;149.036;2023-01-15T11:30:37;1.70;;;1.33;;
40022;SDS011;25713;-35.352;149.036;2023-01-15T11:33:19;1.20;;;1.10;;
40022;SDS011;25713;-35.352;149.036;2023-01-15T11:35:49;1.65;;;1.23;;
40022;SDS011;25713;-35.352;149.036;2023-01-15T11:38:20;1.98;;;1.60;;
40022;SDS011;25713;-35.352;149.036;2023-01-15T11:40:51;1.50;;;1.40;;
40022;SDS011;25713;-35.352;149.036;2023-01-15T11:43:21;1.45;;;1.35;;
40022;SDS011;25713;-35.352;149.036;2023-01-15T11:45:53;2.60;;;1.70;;
40022;SDS011;25713;-35.352;149.036;2023-01-15T11:48:23;2.28;;;1.95;;
40022;SDS011;25713;-35.352;149.036;2023-01-15T11:50:54;2.70;;;1.95;;
40022;SDS011;25713;-35.352;149.036;2023-01-15T11:53:28;2.40;;;2.00;;
40022;SDS011;25713;-35.352;149.036;2023-01-15T11:56:02;4.90;;;2.38;;
40022;SDS011;25713;-35.352;149.036;2023-01-15T11:58:38;4.18;;;2.30;;
40022;SDS011;25713;-35.352;149.036;2023-01-15T12:01:16;3.22;;;2.22;;
40022;SDS011;25713;-35.352;149.036;2023-01-15T12:03:50;3.42;;;2.00;;
40022;SDS011;25713;-35.352;149.036;2023-01-15T12:06:20;5.18;;;3.08;;
40022;SDS011;25713;-35.352;149.036;2023-01-15T12:08:51;4.40;;;2.50;;
40022;SDS011;25713;-35.352;149.036;2023-01-15T12:11:37;3.30;;;2.45;;
40022;SDS011;25713;-35.352;149.036;2023-01-15T12:14:25;4.15;;;2.97;;
40022;SDS011;25713;-35.352;149.036;2023-01-15T12:17:18;4.72;;;2.40;;
40022;SDS011;25713;-35.352;149.036;2023-01-15T12:19:58;3.30;;;2.40;;
40022;SDS011;25713;-35.352;149.036;2023-01-15T12:22:38;2.92;;;2.30;;
40022;SDS011;25713;-35.352;149.036;2023-01-15T12:25:19;2.90;;;2.60;;
40022;SDS011;25713;-35.352;149.036;2023-01-15T12:28:01;4.47;;;2.70;;
40022;SDS011;25713;-35.352;149.036;2023-01-15T12:30:44;3.22;;;2.58;;
40022;SDS011;25713;-35.352;149.036;2023-01-15T12:33:27;4.85;;;2.80;;
40022;SDS011;25713;-35.352;149.036;2023-01-15T12:36:07;2.85;;;2.53;;
40022;SDS011;25713;-35.352;149.036;2023-01-15T12:38:50;3.38;;;3.00;;
40022;SDS011;25713;-35.352;149.036;2023-01-15T12:41:24;4.72;;;2.80;;
40022;SDS011;25713;-35.352;149.036;2023-01-15T12:43:57;4.35;;;3.08;;
40022;SDS011;25713;-35.352;149.036;2023-01-15T12:46:27;3.85;;;2.70;;
40022;SDS011;25713;-35.352;149.036;2023-01-15T12:49:05;5.72;;;3.17;;
40022;SDS011;25713;-35.352;149.036;2023-01-15T12:51:46;3.45;;;2.70;;
40022;SDS011;25713;-35.352;149.036;2023-01-15T12:54:20;4.05;;;2.80;;
40022;SDS011;25713;-35.352;149.036;2023-01-15T12:56:56;3.50;;;2.55;;
40022;SDS011;25713;-35.352;149.036;2023-01-15T12:59:29;3.55;;;2.80;;
40022;SDS011;25713;-35.352;149.036;2023-01-15T13:02:09;4.18;;;3.13;;
40022;SDS011;25713;-35.352;149.036;2023-01-15T13:04:46;3.63;;;2.95;;
40022;SDS011;25713;-35.352;149.036;2023-01-15T13:07:19;3.53;;;2.85;;
40022;SDS011;25713;-35.352;149.036;2023-01-15T13:09:55;3.30;;;2.70;;
40022;SDS011;25713;-35.352;149.036;2023-01-15T13:12:31;3.20;;;2.90;;
40022;SDS011;25713;-35.352;149.036;2023-01-15T13:15:01;3.53;;;2.70;;
40022;SDS011;25713;-35.352;149.036;2023-01-15T13:17:34;4.53;;;2.70;;
40022;SDS011;25713;-35.352;149.036;2023-01-15T13:23:06;3.60;;;3.00;;
40022;SDS011;25713;-35.352;149.036;2023-01-15T13:28:33;5.47;;;3.03;;
40022;SDS011;25713;-35.352;149.036;2023-01-15T13:31:30;5.30;;;3.00;;
40022;SDS011;25713;-35.352;149.036;2023-01-15T13:34:11;6.25;;;3.08;;
40022;SDS011;25713;-35.352;149.036;2023-01-15T13:36:51;5.35;;;3.35;;
40022;SDS011;25713;-35.352;149.036;2023-01-15T13:39:23;3.38;;;3.08;;
40022;SDS011;25713;-35.352;149.036;2023-01-15T13:42:02;3.70;;;3.00;;
40022;SDS011;25713;-35.352;149.036;2023-01-15T13:44:35;4.18;;;3.00;;
40022;SDS011;25713;-35.352;149.036;2023-01-15T13:47:11;4.35;;;3.40;;
40022;SDS011;25713;-35.352;149.036;2023-01-15T13:49:46;3.47;;;3.08;;
40022;SDS011;25713;-35.352;149.036;2023-01-15T13:52:23;3.80;;;3.22;;
40022;SDS011;25713;-35.352;149.036;2023-01-15T13:54:54;5.63;;;3.40;;
40022;SDS011;25713;-35.352;149.036;2023-01-15T13:57:31;4.97;;;3.47;;
40022;SDS011;25713;-35.352;149.036;2023-01-15T14:00:02;5.00;;;3.28;;
40022;SDS011;25713;-35.352;149.036;2023-01-15T14:02:39;5.50;;;3.85;;
40022;SDS011;25713;-35.352;149.036;2023-01-15T14:05:29;4.05;;;3.47;;
40022;SDS011;25713;-35.352;149.036;2023-01-15T14:08:13;4.95;;;3.35;;
40022;SDS011;25713;-35.352;149.036;2023-01-15T14:10:44;5.53;;;3.42;;
40022;SDS011;25713;-35.352;149.036;2023-01-15T14:16:10;4.85;;;3.92;;
40022;SDS011;25713;-35.352;149.036;2023-01-15T14:21:57;4.18;;;3.30;;
40022;SDS011;25713;-35.352;149.036;2023-01-15T14:27:39;4.50;;;3.60;;
40022;SDS011;25713;-35.352;149.036;2023-01-15T14:30:20;4.65;;;4.00;;
40022;SDS011;25713;-35.352;149.036;2023-01-15T14:33:07;4.93;;;4.18;;
40022;SDS011;25713;-35.352;149.036;2023-01-15T14:35:46;4.15;;;3.70;;
40022;SDS011;25713;-35.352;149.036;2023-01-15T14:38:16;4.22;;;3.63;;
40022;SDS011;25713;-35.352;149.036;2023-01-15T14:40:54;4.57;;;3.58;;
40022;SDS011;25713;-35.352;149.036;2023-01-15T14:43:25;4.63;;;3.97;;
40022;SDS011;25713;-35.352;149.036;2023-01-15T14:45:57;4.50;;;3.60;;
40022;SDS011;25713;-35.352;149.036;2023-01-15T14:48:41;5.47;;;3.70;;
40022;SDS011;25713;-35.352;149.036;2023-01-15T15:52:55;5.13;;;4.22;;
40022;SDS011;25713;-35.352;149.036;2023-01-15T15:55:25;5.97;;;4.47;;
40022;SDS011;25713;-35.352;149.036;2023-01-15T15:58:04;8.77;;;5.03;;
40022;SDS011;25713;-35.352;149.036;2023-01-15T16:00:37;6.90;;;4.50;;
40022;SDS011;25713;-35.352;149.036;2023-01-15T16:03:15;6.50;;;4.85;;
40022;SDS011;25713;-35.352;149.036;2023-01-15T16:05:56;6.28;;;4.47;;
40022;SDS011;25713;-35.352;149.036;2023-01-15T16:08:29;4.50;;;3.90;;